Terminal Aerodrome Forecast
Issued by NWS

Home | Current Version | Previous Version | Text Only | Print | Product List | Glossary On
Versions: 1 2 3 4 5 6 7 8 9 10 11 12 13 14 15 16 17 18 19 20 21 22 23 24 25 26
000
FTUS45 KGJT 192330
TAFTEX
TAF
KTEX 192330Z 2000/2024 28007KT P6SM FEW100 SCT150
     FM200200 14003KT P6SM SKC
     FM201600 24003KT P6SM FEW100
     FM202100 24009G15KT P6SM VCTS FEW090CB SCT150
      AMD NOT SKED=

USA.gov is the U.S. government's official web portal to all federal, state and local government web resources and services.